Time;durP1;ratioP1;P1;durP2;ratioP2;P2;SDS_P1;SDS_P2;PMS_P1;PMS_P2;Temp;Humidity;BMP_temperature;BMP_pressure;BME280_temperature;BME280_humidity;BME280_pressure;Samples;Min_cycle;Max_cycle;Signal;HPM_P1;HPM_P2
2024/03/08 00:00:48;;;;;;;28.25;15.48;;;;;;;;;;4980268;28;20082;-77
2024/03/08 00:03:15;;;;;;;25.95;14.52;;;;;;;;;;4974881;28;20175;-79
2024/03/08 00:05:42;;;;;;;28.00;14.30;;;;;;;;;;4979321;28;20051;-80
2024/03/08 00:08:09;;;;;;;25.08;14.57;;;;;;;;;;4977871;28;20065;-79
2024/03/08 00:10:38;;;;;;;28.52;14.85;;;;;;;;;;4962096;28;20085;-80
2024/03/08 00:13:06;;;;;;;25.20;15.20;;;;;;;;;;4980320;28;20082;-81
2024/03/08 00:15:33;;;;;;;22.90;13.75;;;;;;;;;;4964961;28;20468;-82
2024/03/08 00:18:00;;;;;;;30.35;15.00;;;;;;;;;;4970751;28;20051;-82
2024/03/08 00:20:27;;;;;;;25.00;14.43;;;;;;;;;;4968928;28;20082;-82
2024/03/08 00:22:53;;;;;;;24.67;14.25;;;;;;;;;;4986723;28;20065;-82
2024/03/08 00:25:20;;;;;;;27.35;14.73;;;;;;;;;;4986468;28;20066;-82
2024/03/08 00:27:49;;;;;;;28.05;14.60;;;;;;;;;;4985903;28;20054;-82
2024/03/08 00:30:16;;;;;;;26.95;15.70;;;;;;;;;;4964258;28;20067;-82
2024/03/08 00:32:43;;;;;;;23.63;14.38;;;;;;;;;;4985807;28;20047;-82
2024/03/08 00:35:11;;;;;;;23.52;14.07;;;;;;;;;;4970060;28;20517;-82
2024/03/08 00:37:37;;;;;;;25.70;14.05;;;;;;;;;;5004315;28;20066;-80
2024/03/08 00:40:08;;;;;;;26.48;14.85;;;;;;;;;;4990715;28;20043;-80
2024/03/08 00:42:38;;;;;;;30.38;15.13;;;;;;;;;;4988402;28;20086;-80
2024/03/08 00:45:05;;;;;;;25.92;14.63;;;;;;;;;;4986068;28;20051;-81
2024/03/08 00:47:32;;;;;;;26.38;15.40;;;;;;;;;;4984519;28;20078;-81
2024/03/08 00:49:58;;;;;;;27.58;15.50;;;;;;;;;;4984539;28;20065;-81
2024/03/08 00:52:26;;;;;;;29.45;15.63;;;;;;;;;;4983150;28;20047;-80
2024/03/08 00:54:53;;;;;;;29.27;16.15;;;;;;;;;;5002865;28;20051;-81
2024/03/08 00:57:19;;;;;;;28.65;14.20;;;;;;;;;;4983592;28;20054;-79
2024/03/08 00:59:46;;;;;;;28.63;16.17;;;;;;;;;;4965967;28;20057;-81
2024/03/08 01:02:13;;;;;;;26.67;15.88;;;;;;;;;;4982259;28;20051;-80
2024/03/08 01:04:40;;;;;;;27.00;15.13;;;;;;;;;;4981954;28;20057;-82
2024/03/08 01:07:07;;;;;;;27.25;14.68;;;;;;;;;;4981589;28;20046;-80
2024/03/08 01:09:33;;;;;;;29.40;15.65;;;;;;;;;;4958228;28;20047;-79
2024/03/08 01:12:01;;;;;;;29.75;16.80;;;;;;;;;;4978761;28;20055;-80
2024/03/08 01:14:31;;;;;;;26.00;14.63;;;;;;;;;;4962322;28;20505;-80
2024/03/08 01:16:58;;;;;;;30.30;15.60;;;;;;;;;;4964549;28;20149;-79
2024/03/08 01:19:25;;;;;;;30.77;14.98;;;;;;;;;;4964951;28;20053;-80
2024/03/08 01:21:52;;;;;;;27.08;15.20;;;;;;;;;;4980528;28;20102;-80
2024/03/08 01:24:19;;;;;;;26.48;16.38;;;;;;;;;;4957287;28;20058;-79
2024/03/08 01:26:46;;;;;;;27.25;15.23;;;;;;;;;;4975570;28;20066;-81
2024/03/08 01:29:13;;;;;;;27.63;15.05;;;;;;;;;;4981850;28;20082;-78
2024/03/08 01:31:40;;;;;;;30.70;14.30;;;;;;;;;;4981960;28;20050;-78
2024/03/08 01:34:06;;;;;;;26.90;14.95;;;;;;;;;;4975747;28;20046;-79
2024/03/08 01:36:33;;;;;;;28.13;14.18;;;;;;;;;;4964261;28;20061;-80
2024/03/08 01:39:00;;;;;;;27.27;14.90;;;;;;;;;;4995563;28;20055;-78
2024/03/08 01:41:29;;;;;;;26.83;15.00;;;;;;;;;;4978907;28;20074;-80
2024/03/08 01:43:56;;;;;;;27.52;14.73;;;;;;;;;;4983963;28;20055;-78
2024/03/08 01:46:23;;;;;;;27.55;14.77;;;;;;;;;;4991726;28;20051;-80
2024/03/08 01:48:50;;;;;;;29.88;15.98;;;;;;;;;;4965926;28;20050;-82
2024/03/08 01:51:18;;;;;;;26.20;15.05;;;;;;;;;;4968912;28;20051;-80
2024/03/08 01:53:45;;;;;;;26.05;16.20;;;;;;;;;;4981356;28;20059;-83
2024/03/08 01:56:13;;;;;;;27.17;14.30;;;;;;;;;;4964832;28;20065;-81
2024/03/08 01:58:43;;;;;;;27.48;13.73;;;;;;;;;;4992858;28;20475;-83
2024/03/08 02:01:11;;;;;;;25.60;14.45;;;;;;;;;;4961808;28;20502;-82
2024/03/08 02:03:37;;;;;;;25.98;14.68;;;;;;;;;;4981795;28;20050;-80
2024/03/08 02:06:05;;;;;;;31.67;15.45;;;;;;;;;;4983845;28;20050;-81
2024/03/08 02:08:32;;;;;;;29.13;15.00;;;;;;;;;;4968703;28;20050;-81
2024/03/08 02:10:58;;;;;;;27.55;14.43;;;;;;;;;;4983105;28;20078;-80
2024/03/08 02:13:25;;;;;;;30.50;15.15;;;;;;;;;;4976301;28;20477;-82
2024/03/08 02:15:52;;;;;;;24.50;14.88;;;;;;;;;;4978006;28;20313;-82
2024/03/08 02:18:19;;;;;;;28.35;15.18;;;;;;;;;;4967114;28;20055;-80
2024/03/08 02:20:52;;;;;;;27.27;14.77;;;;;;;;;;4965711;28;20078;-80
2024/03/08 02:23:19;;;;;;;;;;;;;;;;;;4983554;28;20113;-79
2024/03/08 02:25:46;;;;;;;26.90;14.10;;;;;;;;;;4977525;28;19962;-80
2024/03/08 02:28:14;;;;;;;24.95;14.07;;;;;;;;;;4966167;28;20114;-79
2024/03/08 02:30:41;;;;;;;26.63;13.48;;;;;;;;;;4966864;28;20059;-77
2024/03/08 02:33:09;;;;;;;25.48;13.55;;;;;;;;;;4984607;28;20050;-79
2024/03/08 02:35:36;;;;;;;29.08;14.60;;;;;;;;;;4982092;28;20139;-80
2024/03/08 02:38:03;;;;;;;24.48;14.73;;;;;;;;;;4964239;28;20489;-79
2024/03/08 02:40:30;;;;;;;24.55;14.27;;;;;;;;;;4966869;28;20079;-79
2024/03/08 02:42:57;;;;;;;28.20;13.30;;;;;;;;;;4998497;28;20131;-80
2024/03/08 02:45:24;;;;;;;27.08;14.68;;;;;;;;;;4986793;28;20057;-79
2024/03/08 02:47:51;;;;;;;25.92;14.43;;;;;;;;;;4976990;28;20119;-79
2024/03/08 02:50:18;;;;;;;22.52;13.73;;;;;;;;;;4984899;28;20146;-80
2024/03/08 02:52:46;;;;;;;27.23;14.43;;;;;;;;;;4986244;28;20055;-80
2024/03/08 02:55:16;;;;;;;25.08;13.20;;;;;;;;;;4987064;28;20089;-80
2024/03/08 02:57:47;;;;;;;28.00;13.82;;;;;;;;;;4977146;28;20073;-80
2024/03/08 03:00:13;;;;;;;22.20;13.00;;;;;;;;;;4990121;28;20125;-82
2024/03/08 03:02:40;;;;;;;24.70;13.45;;;;;;;;;;4985737;28;20043;-82
2024/03/08 03:05:09;;;;;;;24.40;14.68;;;;;;;;;;4989301;28;20054;-83
2024/03/08 03:07:36;;;;;;;22.85;12.60;;;;;;;;;;4985184;28;20074;-82
2024/03/08 03:10:02;;;;;;;21.95;13.07;;;;;;;;;;4983177;28;20066;-82
2024/03/08 03:12:29;;;;;;;22.70;13.38;;;;;;;;;;4965276;28;20062;-80
2024/03/08 03:14:56;;;;;;;23.48;13.50;;;;;;;;;;4961723;28;20125;-80
2024/03/08 03:17:24;;;;;;;25.58;14.15;;;;;;;;;;4974386;28;20047;-80
2024/03/08 03:19:51;;;;;;;22.25;12.38;;;;;;;;;;4976043;28;20078;-81
2024/03/08 03:22:19;;;;;;;21.27;12.25;;;;;;;;;;4976047;28;20090;-80
2024/03/08 03:24:51;;;;;;;26.08;14.55;;;;;;;;;;4978466;28;20058;-80
2024/03/08 03:27:18;;;;;;;22.52;13.40;;;;;;;;;;4988548;28;20484;-79
2024/03/08 03:29:47;;;;;;;25.55;13.30;;;;;;;;;;4959529;28;20047;-78
2024/03/08 03:32:13;;;;;;;24.33;13.00;;;;;;;;;;4979676;28;20062;-79
2024/03/08 03:34:40;;;;;;;25.48;13.75;;;;;;;;;;4978494;28;20564;-78
2024/03/08 03:37:08;;;;;;;24.63;12.40;;;;;;;;;;4979256;28;20046;-79
2024/03/08 03:39:40;;;;;;;21.67;12.40;;;;;;;;;;4965018;28;20054;-80
2024/03/08 03:42:07;;;;;;;20.67;12.68;;;;;;;;;;4976085;28;20074;-81
2024/03/08 03:44:33;;;;;;;22.23;12.77;;;;;;;;;;4964008;28;20063;-80
2024/03/08 03:47:00;;;;;;;26.25;13.88;;;;;;;;;;4977741;28;20584;-80
2024/03/08 03:49:28;;;;;;;24.92;12.57;;;;;;;;;;4977539;28;20062;-81
2024/03/08 03:51:56;;;;;;;21.45;13.38;;;;;;;;;;4976789;28;20117;-80
2024/03/08 03:54:22;;;;;;;25.17;13.27;;;;;;;;;;4975503;28;20057;-81
2024/03/08 03:56:52;;;;;;;23.70;13.35;;;;;;;;;;4957502;28;20121;-81
2024/03/08 03:59:19;;;;;;;24.15;14.07;;;;;;;;;;4974915;28;20061;-81
2024/03/08 04:01:46;;;;;;;20.15;11.57;;;;;;;;;;4952266;28;20410;-81
2024/03/08 04:04:12;;;;;;;25.35;13.15;;;;;;;;;;4979084;28;20090;-80
2024/03/08 04:06:39;;;;;;;23.08;13.18;;;;;;;;;;4990215;28;20118;-79
2024/03/08 04:09:06;;;;;;;22.67;12.95;;;;;;;;;;4980965;28;20473;-81
2024/03/08 04:11:32;;;;;;;25.17;12.85;;;;;;;;;;4977446;28;20070;-79
2024/03/08 04:13:59;;;;;;;22.13;13.23;;;;;;;;;;4979925;28;20062;-82
2024/03/08 04:16:26;;;;;;;22.23;12.95;;;;;;;;;;4984363;28;20055;-81
2024/03/08 04:18:52;;;;;;;23.85;12.18;;;;;;;;;;4978197;28;20051;-80
2024/03/08 04:21:19;;;;;;;26.33;13.13;;;;;;;;;;4983761;28;20142;-82
2024/03/08 04:23:46;;;;;;;21.65;13.15;;;;;;;;;;4982341;28;20110;-81
2024/03/08 04:26:13;;;;;;;23.45;13.27;;;;;;;;;;4981603;28;20097;-80
2024/03/08 04:28:42;;;;;;;21.48;12.02;;;;;;;;;;4981138;28;20390;-81
2024/03/08 04:31:10;;;;;;;22.20;12.88;;;;;;;;;;4980583;28;20055;-81
2024/03/08 04:33:37;;;;;;;20.20;11.90;;;;;;;;;;4982168;28;20062;-80
2024/03/08 04:36:07;;;;;;;22.60;12.25;;;;;;;;;;4981870;28;20082;-81
2024/03/08 04:38:34;;;;;;;24.35;12.93;;;;;;;;;;4976376;28;20051;-80
2024/03/08 04:41:01;;;;;;;24.42;12.40;;;;;;;;;;4974070;28;20051;-80
2024/03/08 04:43:30;;;;;;;24.35;13.55;;;;;;;;;;4987652;28;20468;-80
2024/03/08 04:45:56;;;;;;;27.27;14.25;;;;;;;;;;5000730;28;20058;-81
2024/03/08 04:48:23;;;;;;;24.80;14.02;;;;;;;;;;4994593;28;20114;-80
2024/03/08 04:50:50;;;;;;;24.33;13.77;;;;;;;;;;4986365;28;20498;-81
2024/03/08 04:53:17;;;;;;;25.17;13.98;;;;;;;;;;5006751;28;20046;-80
2024/03/08 04:55:44;;;;;;;27.05;13.13;;;;;;;;;;5006698;28;20060;-80
2024/03/08 04:58:11;;;;;;;22.70;12.68;;;;;;;;;;5004264;28;20046;-79
2024/03/08 05:00:38;;;;;;;26.33;12.52;;;;;;;;;;4990243;28;20422;-79
2024/03/08 05:03:05;;;;;;;24.52;13.15;;;;;;;;;;5006228;28;20054;-81
2024/03/08 05:05:33;;;;;;;23.17;12.80;;;;;;;;;;4999306;28;20110;-80
2024/03/08 05:08:01;;;;;;;23.23;12.68;;;;;;;;;;4994427;28;20472;-80
2024/03/08 05:10:28;;;;;;;24.05;12.98;;;;;;;;;;4990891;28;20046;-82
2024/03/08 05:12:54;;;;;;;25.42;12.95;;;;;;;;;;4991693;28;20065;-83
2024/03/08 05:15:23;;;;;;;28.10;13.75;;;;;;;;;;4984034;28;20055;-81
2024/03/08 05:17:49;;;;;;;21.40;10.93;;;;;;;;;;4965431;28;20055;-81
2024/03/08 05:20:17;;;;;;;28.02;14.70;;;;;;;;;;4981019;28;20453;-81
2024/03/08 05:22:43;;;;;;;26.27;13.45;;;;;;;;;;4982342;28;20055;-80
2024/03/08 05:25:10;;;;;;;25.77;12.23;;;;;;;;;;4964018;28;20059;-82
2024/03/08 05:27:37;;;;;;;24.02;13.55;;;;;;;;;;4984158;28;20055;-82
2024/03/08 05:30:04;;;;;;;24.63;13.95;;;;;;;;;;4966619;28;20134;-81
2024/03/08 05:32:31;;;;;;;26.58;13.63;;;;;;;;;;4963129;28;20051;-82
2024/03/08 05:34:58;;;;;;;28.02;14.70;;;;;;;;;;4984352;28;20059;-82
2024/03/08 05:37:25;;;;;;;27.95;14.32;;;;;;;;;;4968892;28;20055;-83
2024/03/08 05:39:51;;;;;;;23.77;13.63;;;;;;;;;;4976734;28;20048;-82
2024/03/08 05:42:18;;;;;;;28.13;14.40;;;;;;;;;;4967648;28;20050;-81
2024/03/08 05:44:45;;;;;;;25.02;13.80;;;;;;;;;;4982791;28;20058;-81
2024/03/08 05:47:12;;;;;;;23.63;12.75;;;;;;;;;;4966155;28;20721;-81
2024/03/08 05:49:39;;;;;;;22.92;13.35;;;;;;;;;;4977255;28;20128;-79
2024/03/08 05:52:07;;;;;;;23.35;13.85;;;;;;;;;;4984403;28;20062;-79
2024/03/08 05:54:34;;;;;;;26.92;14.00;;;;;;;;;;4986893;28;20145;-80
2024/03/08 05:57:00;;;;;;;25.23;14.45;;;;;;;;;;4984248;28;20461;-79
2024/03/08 05:59:27;;;;;;;28.27;14.60;;;;;;;;;;4984742;28;20051;-80
2024/03/08 06:01:54;;;;;;;22.73;13.23;;;;;;;;;;4979444;28;20082;-79
2024/03/08 06:04:21;;;;;;;26.77;13.55;;;;;;;;;;4985924;28;20118;-80
2024/03/08 06:06:48;;;;;;;26.77;14.18;;;;;;;;;;5006708;28;20061;-80
2024/03/08 06:09:22;;;;;;;32.47;14.45;;;;;;;;;;4987454;28;20059;-80
2024/03/08 06:11:54;;;;;;;26.20;14.40;;;;;;;;;;4987765;28;20062;-80
2024/03/08 06:14:21;;;;;;;29.88;15.52;;;;;;;;;;4981715;28;20047;-80
2024/03/08 06:16:50;;;;;;;31.00;15.00;;;;;;;;;;4977021;28;20497;-80
2024/03/08 06:19:17;;;;;;;28.63;15.07;;;;;;;;;;4970835;28;20113;-80
2024/03/08 06:21:43;;;;;;;27.48;15.82;;;;;;;;;;4974828;28;20062;-80
2024/03/08 06:24:10;;;;;;;26.15;14.18;;;;;;;;;;4974820;28;20051;-81
2024/03/08 06:26:37;;;;;;;27.35;15.70;;;;;;;;;;4970562;28;20055;-80
2024/03/08 06:29:08;;;;;;;29.60;14.73;;;;;;;;;;4979672;28;20055;-80
2024/03/08 06:31:38;;;;;;;27.77;15.63;;;;;;;;;;4966573;28;20062;-81
2024/03/08 06:34:07;;;;;;;27.52;15.23;;;;;;;;;;4962329;28;20517;-81
2024/03/08 06:36:37;;;;;;;26.85;14.73;;;;;;;;;;4965025;28;20039;-83
2024/03/08 06:39:08;;;;;;;27.08;15.65;;;;;;;;;;4962722;28;20070;-78
2024/03/08 06:41:36;;;;;;;25.00;14.45;;;;;;;;;;4963206;28;20097;-81
2024/03/08 06:44:03;;;;;;;26.95;14.02;;;;;;;;;;4976138;28;20061;-79
2024/03/08 06:46:30;;;;;;;25.83;14.82;;;;;;;;;;4975039;28;20050;-82
2024/03/08 06:48:57;;;;;;;26.23;14.57;;;;;;;;;;4964118;28;20055;-80
2024/03/08 06:51:24;;;;;;;24.60;14.38;;;;;;;;;;4977558;28;20054;-79
2024/03/08 06:53:52;;;;;;;26.27;15.63;;;;;;;;;;4976782;28;20431;-78
2024/03/08 06:56:19;;;;;;;24.17;14.27;;;;;;;;;;4961519;28;20081;-78
2024/03/08 06:58:46;;;;;;;24.60;14.18;;;;;;;;;;4976710;28;20540;-78
2024/03/08 07:01:14;;;;;;;22.42;13.25;;;;;;;;;;4986173;28;20050;-78
2024/03/08 07:03:44;;;;;;;22.35;13.20;;;;;;;;;;4992982;28;20517;-76
2024/03/08 07:06:11;;;;;;;21.02;12.68;;;;;;;;;;4980601;28;20051;-79
2024/03/08 07:08:38;;;;;;;22.60;12.93;;;;;;;;;;4971291;28;20059;-76
2024/03/08 07:11:04;;;;;;;24.42;15.55;;;;;;;;;;4982270;28;20050;-78
2024/03/08 07:13:31;;;;;;;22.65;14.73;;;;;;;;;;4979371;28;20078;-78
2024/03/08 07:16:00;;;;;;;22.52;13.82;;;;;;;;;;4980079;28;20085;-78
2024/03/08 07:18:29;;;;;;;24.73;14.15;;;;;;;;;;4958094;28;20058;-77
2024/03/08 07:20:57;;;;;;;24.42;13.57;;;;;;;;;;4976146;28;20051;-78
2024/03/08 07:26:09;;;;;;;21.20;13.48;;;;;;;;;;4978792;28;20068;-77
2024/03/08 07:28:36;;;;;;;21.95;13.43;;;;;;;;;;4975897;28;20094;-77
2024/03/08 07:33:38;;;;;;;22.77;12.52;;;;;;;;;;4981690;28;20094;-74
2024/03/08 07:36:05;;;;;;;22.27;12.73;;;;;;;;;;4973490;28;20047;-78
2024/03/08 07:38:32;;;;;;;20.73;12.00;;;;;;;;;;4958839;28;20058;-75
2024/03/08 07:40:58;;;;;;;20.05;12.45;;;;;;;;;;4972933;28;20075;-79
2024/03/08 07:43:26;;;;;;;21.67;12.27;;;;;;;;;;4956859;28;20445;-78
2024/03/08 07:45:54;;;;;;;23.10;13.20;;;;;;;;;;4976079;28;20059;-79
2024/03/08 07:48:21;;;;;;;24.40;12.32;;;;;;;;;;4977393;28;20489;-79
2024/03/08 07:50:49;;;;;;;22.77;13.18;;;;;;;;;;4976827;28;20126;-79
2024/03/08 07:53:16;;;;;;;21.63;12.95;;;;;;;;;;4977357;28;20062;-82
2024/03/08 07:55:46;;;;;;;23.80;13.20;;;;;;;;;;4958343;28;20421;-87
2024/03/08 07:58:13;;;;;;;24.15;13.02;;;;;;;;;;4973978;28;20074;-85
2024/03/08 08:00:42;;;;;;;22.35;13.43;;;;;;;;;;4972304;28;20088;-80
2024/03/08 08:03:10;;;;;;;24.90;14.80;;;;;;;;;;4967336;28;20066;-82
2024/03/08 08:05:38;;;;;;;23.50;14.00;;;;;;;;;;4987200;28;20051;-83
2024/03/08 08:08:11;;;;;;;20.38;12.25;;;;;;;;;;4970487;28;20527;-80
2024/03/08 08:10:38;;;;;;;20.88;11.77;;;;;;;;;;4977502;28;20189;-83
2024/03/08 08:13:06;;;;;;;20.58;12.32;;;;;;;;;;4959690;28;20047;-83
2024/03/08 08:15:36;;;;;;;18.63;11.77;;;;;;;;;;4986219;28;20054;-81
2024/03/08 08:18:05;;;;;;;21.40;13.45;;;;;;;;;;4971324;28;20051;-78
2024/03/08 08:20:35;;;;;;;20.93;12.73;;;;;;;;;;4971156;28;20950;-80
2024/03/08 08:23:03;;;;;;;20.67;12.23;;;;;;;;;;4971923;28;20047;-81
2024/03/08 08:25:29;;;;;;;19.30;11.95;;;;;;;;;;4983868;28;20047;-81
2024/03/08 08:27:56;;;;;;;20.98;12.65;;;;;;;;;;4974675;28;20469;-81
2024/03/08 08:30:23;;;;;;;24.95;13.52;;;;;;;;;;4967581;28;20055;-81
2024/03/08 08:32:49;;;;;;;18.20;11.52;;;;;;;;;;4987013;28;20086;-79
2024/03/08 08:35:18;;;;;;;20.45;12.50;;;;;;;;;;4971752;28;20139;-83
2024/03/08 08:37:45;;;;;;;18.52;11.18;;;;;;;;;;4972897;28;20063;-82
2024/03/08 08:40:14;;;;;;;19.83;12.02;;;;;;;;;;4981477;28;20592;-83
2024/03/08 08:42:42;;;;;;;20.02;12.35;;;;;;;;;;4990374;28;20051;-83
2024/03/08 08:45:10;;;;;;;22.90;13.52;;;;;;;;;;4957194;28;20065;-83
2024/03/08 08:47:46;;;;;;;21.17;12.20;;;;;;;;;;4975681;28;20051;-83
2024/03/08 08:50:14;;;;;;;18.33;11.75;;;;;;;;;;4979330;28;20053;-83
2024/03/08 08:52:43;;;;;;;18.58;11.30;;;;;;;;;;4977810;28;20090;-82
2024/03/08 08:55:14;;;;;;;17.98;11.48;;;;;;;;;;4971577;28;20050;-82
2024/03/08 08:57:42;;;;;;;17.85;11.35;;;;;;;;;;4977276;28;20061;-83
2024/03/08 09:00:14;;;;;;;16.67;10.70;;;;;;;;;;4962362;28;20054;-82
2024/03/08 09:02:41;;;;;;;22.05;12.27;;;;;;;;;;4990768;28;20050;-82
2024/03/08 09:05:09;;;;;;;20.30;12.20;;;;;;;;;;4958404;28;20515;-83
2024/03/08 09:07:36;;;;;;;18.00;10.88;;;;;;;;;;4972427;28;20105;-82
2024/03/08 09:10:03;;;;;;;19.52;11.98;;;;;;;;;;4972814;28;20093;-82
2024/03/08 09:12:33;;;;;;;20.20;11.65;;;;;;;;;;4971929;28;20050;-82
2024/03/08 09:15:00;;;;;;;19.83;10.98;;;;;;;;;;4973655;28;20082;-82
2024/03/08 09:17:27;;;;;;;18.80;10.70;;;;;;;;;;4972993;28;20079;-82
2024/03/08 09:19:54;;;;;;;18.05;11.30;;;;;;;;;;4973177;28;20178;-82
2024/03/08 09:22:21;;;;;;;20.42;11.38;;;;;;;;;;4967612;28;20059;-82
2024/03/08 09:24:47;;;;;;;19.58;11.38;;;;;;;;;;4977538;28;20100;-81
2024/03/08 09:27:14;;;;;;;17.08;10.77;;;;;;;;;;4974043;28;20070;-82
2024/03/08 09:29:41;;;;;;;21.80;11.40;;;;;;;;;;4968841;28;20050;-82
2024/03/08 09:32:07;;;;;;;19.05;10.80;;;;;;;;;;4975096;28;20051;-82
2024/03/08 09:34:34;;;;;;;19.13;11.52;;;;;;;;;;4976006;28;20055;-81
2024/03/08 09:37:04;;;;;;;17.27;11.00;;;;;;;;;;4989882;28;20517;-82
2024/03/08 09:39:31;;;;;;;18.20;10.82;;;;;;;;;;4990284;28;20051;-82
2024/03/08 09:41:59;;;;;;;21.30;12.48;;;;;;;;;;4960661;28;20057;-82
2024/03/08 09:44:28;;;;;;;18.20;10.50;;;;;;;;;;4986345;28;20053;-82
2024/03/08 09:46:55;;;;;;;19.25;11.32;;;;;;;;;;4974260;28;20051;-82
2024/03/08 09:49:22;;;;;;;23.85;11.90;;;;;;;;;;4986803;28;20082;-82
2024/03/08 09:51:49;;;;;;;20.60;11.40;;;;;;;;;;4961438;28;20062;-81
2024/03/08 09:54:20;;;;;;;19.00;11.25;;;;;;;;;;4966659;28;20649;-82
2024/03/08 09:56:50;;;;;;;18.83;11.23;;;;;;;;;;4962405;28;20126;-82
2024/03/08 10:01:56;;;;;;;21.90;11.10;;;;;;;;;;4971288;28;20142;-82
2024/03/08 10:04:23;;;;;;;21.52;12.27;;;;;;;;;;4955408;28;20054;-82
2024/03/08 10:06:50;;;;;;;19.30;11.70;;;;;;;;;;4955186;28;20516;-82
2024/03/08 10:09:17;;;;;;;20.08;11.43;;;;;;;;;;4972741;28;20051;-82
2024/03/08 10:11:44;;;;;;;18.35;10.82;;;;;;;;;;4973296;28;20058;-83
2024/03/08 10:14:19;;;;;;;20.30;11.40;;;;;;;;;;4987413;28;20042;-82
2024/03/08 10:16:46;;;;;;;19.95;11.75;;;;;;;;;;4975380;28;20422;-82
2024/03/08 10:19:13;;;;;;;18.70;11.27;;;;;;;;;;4962115;28;20066;-83
2024/03/08 10:21:50;;;;;;;19.50;11.30;;;;;;;;;;4962856;28;20055;-82
2024/03/08 10:24:17;;;;;;;18.75;10.63;;;;;;;;;;4974274;28;20055;-83
2024/03/08 10:26:44;;;;;;;17.42;10.57;;;;;;;;;;4978024;28;20053;-83
2024/03/08 10:29:15;;;;;;;18.92;11.70;;;;;;;;;;4970160;28;20059;-83
2024/03/08 10:31:45;;;;;;;17.00;10.15;;;;;;;;;;4980515;28;20057;-84
2024/03/08 10:34:12;;;;;;;18.30;10.90;;;;;;;;;;4960897;28;20077;-83
2024/03/08 10:36:40;;;;;;;22.33;12.45;;;;;;;;;;4992103;28;20066;-83
2024/03/08 10:39:10;;;;;;;19.67;11.07;;;;;;;;;;4964236;28;20046;-82
2024/03/08 10:41:37;;;;;;;19.52;12.48;;;;;;;;;;4978126;28;20536;-83
2024/03/08 10:44:12;;;;;;;18.25;11.38;;;;;;;;;;4972126;28;20134;-84
2024/03/08 10:46:39;;;;;;;19.83;11.90;;;;;;;;;;4982573;28;20082;-83
2024/03/08 10:49:08;;;;;;;18.98;11.48;;;;;;;;;;4981665;28;20066;-84
2024/03/08 10:51:34;;;;;;;18.05;10.50;;;;;;;;;;4976882;28;20508;-83
2024/03/08 10:54:03;;;;;;;16.83;10.93;;;;;;;;;;4978008;28;20062;-82
2024/03/08 10:56:29;;;;;;;17.60;10.18;;;;;;;;;;4991040;28;20047;-82
2024/03/08 10:58:56;;;;;;;21.83;11.68;;;;;;;;;;4978047;28;20055;-82
2024/03/08 11:01:25;;;;;;;18.50;11.25;;;;;;;;;;5000468;28;20051;-82
2024/03/08 11:03:56;;;;;;;20.85;11.93;;;;;;;;;;4983125;28;20053;-83
2024/03/08 11:06:23;;;;;;;19.58;11.93;;;;;;;;;;4966828;28;20420;-83
2024/03/08 11:08:55;;;;;;;19.75;11.05;;;;;;;;;;4985044;28;20058;-83
2024/03/08 11:11:32;;;;;;;17.92;11.65;;;;;;;;;;4978311;28;20050;-84
2024/03/08 11:14:04;;;;;;;17.40;11.15;;;;;;;;;;4975510;28;20073;-84
2024/03/08 11:16:31;;;;;;;18.95;11.73;;;;;;;;;;4974062;28;20063;-84
2024/03/08 11:19:04;;;;;;;17.58;11.15;;;;;;;;;;4977121;28;20317;-84
2024/03/08 11:21:33;;;;;;;17.98;11.07;;;;;;;;;;4990392;28;20099;-84
2024/03/08 11:24:07;;;;;;;19.48;11.80;;;;;;;;;;4990502;28;20055;-84
2024/03/08 11:26:35;;;;;;;17.88;11.05;;;;;;;;;;4977165;28;20118;-83
2024/03/08 11:29:21;;;;;;;18.38;11.25;;;;;;;;;;4978070;28;20138;-84
2024/03/08 11:31:48;;;;;;;19.52;10.95;;;;;;;;;;4982405;28;20161;-83
2024/03/08 11:34:16;;;;;;;21.48;11.45;;;;;;;;;;4980663;28;20090;-83
2024/03/08 11:36:43;;;;;;;18.52;11.75;;;;;;;;;;4997200;28;20130;-83
2024/03/08 11:39:14;;;;;;;22.95;12.68;;;;;;;;;;4981870;28;20059;-83
2024/03/08 11:41:41;;;;;;;19.15;10.82;;;;;;;;;;4987141;28;20098;-78
2024/03/08 11:44:11;;;;;;;22.58;12.23;;;;;;;;;;4972743;28;20058;-81
2024/03/08 11:46:42;;;;;;;21.02;12.68;;;;;;;;;;4969112;28;20110;-82
2024/03/08 11:49:09;;;;;;;22.58;12.35;;;;;;;;;;4977333;28;20138;-81
2024/03/08 11:51:36;;;;;;;21.90;12.07;;;;;;;;;;4968498;28;20051;-82
2024/03/08 11:54:03;;;;;;;21.52;12.77;;;;;;;;;;4975018;28;20448;-82
2024/03/08 11:56:30;;;;;;;19.48;12.10;;;;;;;;;;4967441;28;20063;-82
2024/03/08 11:59:00;;;;;;;21.63;12.30;;;;;;;;;;4972779;28;20054;-83
2024/03/08 12:01:27;;;;;;;19.38;12.00;;;;;;;;;;4974976;28;20464;-80
2024/03/08 12:03:55;;;;;;;20.70;12.65;;;;;;;;;;4981312;28;20051;-84
2024/03/08 12:06:21;;;;;;;19.05;11.52;;;;;;;;;;4995330;28;20062;-82
2024/03/08 12:08:51;;;;;;;22.13;11.82;;;;;;;;;;4991746;28;20050;-77
2024/03/08 12:11:24;;;;;;;18.27;11.73;;;;;;;;;;4972853;28;20058;-77
2024/03/08 12:13:57;;;;;;;21.17;12.43;;;;;;;;;;4968802;28;20059;-77
2024/03/08 12:16:24;;;;;;;20.88;12.00;;;;;;;;;;4983271;28;20062;-77
2024/03/08 12:18:51;;;;;;;22.15;13.07;;;;;;;;;;4964319;28;20187;-78
2024/03/08 12:21:21;;;;;;;22.27;12.73;;;;;;;;;;4965205;28;20047;-83
2024/03/08 12:23:50;;;;;;;24.30;12.13;;;;;;;;;;4966404;28;20066;-82
2024/03/08 12:26:25;;;;;;;19.55;11.52;;;;;;;;;;4963111;28;20058;-82
2024/03/08 12:28:53;;;;;;;21.17;13.30;;;;;;;;;;4975335;28;20066;-82
2024/03/08 12:31:20;;;;;;;21.30;12.45;;;;;;;;;;4975695;28;20149;-82
2024/03/08 12:33:51;;;;;;;23.02;13.18;;;;;;;;;;4990411;28;20073;-82
2024/03/08 12:36:22;;;;;;;20.23;12.18;;;;;;;;;;4973975;28;20066;-81
2024/03/08 12:38:49;;;;;;;20.92;11.95;;;;;;;;;;4972663;28;20055;-82
2024/03/08 12:41:17;;;;;;;21.80;12.18;;;;;;;;;;4975964;28;20046;-82
2024/03/08 12:43:50;;;;;;;19.25;11.68;;;;;;;;;;4968287;28;20047;-82
2024/03/08 12:46:16;;;;;;;;;;;;;;;;;;4957933;28;20055;-82
2024/03/08 12:48:46;;;;;;;20.50;11.57;;;;;;;;;;4972428;28;19922;-82
2024/03/08 12:51:14;;;;;;;16.45;10.57;;;;;;;;;;4987028;28;20051;-82
2024/03/08 12:53:45;;;;;;;20.13;12.07;;;;;;;;;;4970359;28;20055;-82
2024/03/08 12:56:13;;;;;;;17.52;10.65;;;;;;;;;;4978047;28;20080;-82
2024/03/08 12:58:40;;;;;;;21.73;12.73;;;;;;;;;;4978118;28;20053;-82
2024/03/08 13:01:08;;;;;;;20.08;12.55;;;;;;;;;;4963482;28;20055;-82
2024/03/08 13:03:37;;;;;;;20.85;12.38;;;;;;;;;;4975338;28;20423;-81
2024/03/08 13:06:07;;;;;;;18.98;10.45;;;;;;;;;;4972704;28;20070;-81
2024/03/08 13:08:35;;;;;;;18.52;11.20;;;;;;;;;;4988513;28;20061;-82
2024/03/08 13:11:03;;;;;;;20.77;11.68;;;;;;;;;;4972578;28;20050;-82
2024/03/08 13:13:30;;;;;;;17.88;11.52;;;;;;;;;;4969362;28;20043;-81
2024/03/08 13:15:59;;;;;;;17.63;10.95;;;;;;;;;;4969098;28;20497;-81
2024/03/08 13:18:27;;;;;;;21.02;11.10;;;;;;;;;;4969657;28;20126;-82
2024/03/08 13:20:54;;;;;;;18.10;11.68;;;;;;;;;;4969725;28;20955;-82
2024/03/08 13:23:21;;;;;;;19.42;11.48;;;;;;;;;;4969208;28;20047;-82
2024/03/08 13:25:48;;;;;;;20.90;12.57;;;;;;;;;;4968893;28;20051;-82
2024/03/08 13:28:16;;;;;;;16.65;11.15;;;;;;;;;;4963839;28;20055;-83
2024/03/08 13:30:44;;;;;;;17.05;10.30;;;;;;;;;;4992388;28;20055;-81
2024/03/08 13:33:11;;;;;;;19.55;11.27;;;;;;;;;;4977197;28;20082;-81
2024/03/08 13:35:38;;;;;;;17.95;11.10;;;;;;;;;;4974202;28;20069;-81
2024/03/08 13:38:05;;;;;;;18.80;11.20;;;;;;;;;;4989930;28;20138;-81
2024/03/08 13:40:32;;;;;;;20.60;11.80;;;;;;;;;;4972007;28;20046;-81
2024/03/08 13:43:00;;;;;;;17.65;11.27;;;;;;;;;;4971844;28;20827;-79
2024/03/08 13:45:28;;;;;;;19.75;12.30;;;;;;;;;;4968325;28;20058;-82
2024/03/08 13:47:54;;;;;;;19.10;11.10;;;;;;;;;;4950257;28;20070;-80
2024/03/08 13:50:21;;;;;;;18.33;12.07;;;;;;;;;;4979322;28;20062;-80
2024/03/08 13:52:53;;;;;;;19.88;11.20;;;;;;;;;;4980836;28;20059;-80
2024/03/08 13:55:22;;;;;;;18.75;11.90;;;;;;;;;;4982223;28;20398;-80
2024/03/08 13:57:51;;;;;;;18.20;11.00;;;;;;;;;;4972635;28;20043;-79
2024/03/08 14:00:22;;;;;;;20.08;11.98;;;;;;;;;;4973013;28;20109;-80
2024/03/08 14:02:49;;;;;;;18.85;11.27;;;;;;;;;;4975973;28;20125;-80
2024/03/08 14:05:17;;;;;;;16.63;11.07;;;;;;;;;;4967435;28;20113;-80
2024/03/08 14:07:47;;;;;;;18.35;11.52;;;;;;;;;;4978510;28;20093;-79
2024/03/08 14:10:14;;;;;;;16.60;10.05;;;;;;;;;;4969532;28;20050;-79
2024/03/08 14:12:44;;;;;;;18.45;10.80;;;;;;;;;;4977422;28;20055;-80
2024/03/08 14:15:12;;;;;;;16.95;11.18;;;;;;;;;;4970139;28;20061;-80
2024/03/08 14:17:39;;;;;;;18.80;11.13;;;;;;;;;;4975390;28;20122;-80
2024/03/08 14:20:06;;;;;;;18.77;11.02;;;;;;;;;;4973357;28;20051;-80
2024/03/08 14:22:33;;;;;;;16.10;10.38;;;;;;;;;;4978722;28;20055;-80
2024/03/08 14:25:00;;;;;;;15.68;11.38;;;;;;;;;;4983773;28;20043;-81
2024/03/08 14:27:32;;;;;;;17.17;10.32;;;;;;;;;;4986529;28;20077;-80
2024/03/08 14:29:59;;;;;;;17.52;11.38;;;;;;;;;;4971959;28;20117;-80